createdAt,value
2019-03-20T00:00:13.360Z,4.23
2019-03-20T00:02:41.830Z,3.97
2019-03-20T00:05:10.673Z,4.40
2019-03-20T00:07:39.134Z,4.27
2019-03-20T00:10:09.740Z,4.00
2019-03-20T00:12:38.748Z,4.33
2019-03-20T00:15:10.454Z,4.33
2019-03-20T00:17:38.925Z,4.23
2019-03-20T00:20:10.654Z,4.73
2019-03-20T00:22:39.122Z,4.00
2019-03-20T00:25:09.354Z,4.20
2019-03-20T00:27:37.828Z,4.67
2019-03-20T00:30:20.146Z,4.40
2019-03-20T00:32:48.610Z,4.20
2019-03-20T00:35:17.102Z,4.87
2019-03-20T00:37:45.644Z,4.47
2019-03-20T00:40:15.485Z,4.63
2019-03-20T00:42:44.024Z,4.90
2019-03-20T00:45:16.856Z,4.60
2019-03-20T00:47:45.329Z,4.53
2019-03-20T00:50:18.102Z,4.87
2019-03-20T00:52:46.735Z,4.20
2019-03-20T00:55:16.372Z,4.60
2019-03-20T00:57:45.289Z,4.90
2019-03-20T01:00:21.874Z,4.70
2019-03-20T01:02:50.483Z,4.90
2019-03-20T01:05:18.983Z,4.40
2019-03-20T01:07:47.595Z,4.50
2019-03-20T01:10:20.143Z,4.57
2019-03-20T01:12:48.775Z,4.30
2019-03-20T01:15:19.560Z,4.73
2019-03-20T01:17:47.918Z,4.90
2019-03-20T01:20:20.529Z,5.47
2019-03-20T01:22:49.004Z,4.07
2019-03-20T01:25:18.152Z,4.37
2019-03-20T01:27:46.696Z,4.00
2019-03-20T01:30:32.789Z,4.53
2019-03-20T01:33:06.734Z,4.60
2019-03-20T01:35:35.238Z,4.37
2019-03-20T01:38:03.982Z,4.03
2019-03-20T01:40:32.474Z,4.50
2019-03-20T01:43:00.952Z,4.70
2019-03-20T01:45:29.456Z,5.60
2019-03-20T01:47:57.939Z,5.40
2019-03-20T01:50:26.987Z,4.93
2019-03-20T01:52:55.464Z,5.90
2019-03-20T01:55:23.970Z,4.47
2019-03-20T01:57:52.584Z,4.90
2019-03-20T02:00:21.144Z,4.50
2019-03-20T02:02:49.621Z,4.30
2019-03-20T02:05:18.367Z,4.47
2019-03-20T02:07:46.844Z,4.37
2019-03-20T02:10:16.589Z,4.73
2019-03-20T02:12:45.060Z,5.03
2019-03-20T02:15:18.455Z,5.73
2019-03-20T02:17:47.006Z,5.30
2019-03-20T02:20:21.830Z,4.03
2019-03-20T02:22:50.322Z,4.27
2019-03-20T02:25:18.820Z,4.80
2019-03-20T02:27:47.300Z,4.77
2019-03-20T02:30:19.841Z,4.90
2019-03-20T02:32:48.358Z,5.33
2019-03-20T02:35:17.029Z,4.73
2019-03-20T02:37:45.516Z,5.43
2019-03-20T02:40:17.137Z,5.13
2019-03-20T02:42:45.632Z,5.27
2019-03-20T02:45:15.358Z,5.27
2019-03-20T02:47:44.071Z,4.73
2019-03-20T02:50:13.916Z,4.90
2019-03-20T02:52:42.453Z,5.57
2019-03-20T02:55:11.899Z,4.80
2019-03-20T02:57:40.437Z,5.10
2019-03-20T03:00:12.092Z,5.10
2019-03-20T03:02:40.604Z,5.30
2019-03-20T03:05:09.954Z,5.00
2019-03-20T03:07:38.420Z,5.90
2019-03-20T03:10:17.975Z,5.27
2019-03-20T03:12:46.471Z,5.43
2019-03-20T03:15:16.028Z,4.83
2019-03-20T03:17:44.672Z,5.37
2019-03-20T03:20:14.486Z,5.23
2019-03-20T03:22:43.007Z,4.50
2019-03-20T03:25:12.996Z,5.70
2019-03-20T03:27:41.498Z,5.50
2019-03-20T03:30:17.556Z,5.70
2019-03-20T03:32:46.508Z,5.27
2019-03-20T03:35:19.082Z,5.20
2019-03-20T03:37:46.217Z,5.30
2019-03-20T03:40:16.631Z,4.73
2019-03-20T03:42:45.369Z,4.70
2019-03-20T03:45:15.280Z,5.20
2019-03-20T03:47:43.790Z,5.10
2019-03-20T03:50:14.679Z,5.43
2019-03-20T03:52:43.174Z,5.53
2019-03-20T03:55:13.265Z,5.40
2019-03-20T03:57:41.913Z,5.60
2019-03-20T04:00:18.595Z,5.10
2019-03-20T04:02:48.036Z,5.10
2019-03-20T04:05:16.581Z,5.10
2019-03-20T04:07:45.093Z,4.67
2019-03-20T04:10:15.010Z,4.77
2019-03-20T04:12:43.493Z,5.17
2019-03-20T04:15:14.133Z,4.73
2019-03-20T04:17:42.646Z,5.20
2019-03-20T04:20:14.026Z,5.10
2019-03-20T04:22:42.609Z,4.77
2019-03-20T04:25:12.256Z,5.30
2019-03-20T04:27:40.714Z,5.17
2019-03-20T04:30:16.366Z,5.67
2019-03-20T04:32:45.034Z,5.23
2019-03-20T04:35:14.079Z,4.70
2019-03-20T04:37:42.590Z,6.60
2019-03-20T04:40:14.107Z,5.20
2019-03-20T04:42:42.624Z,5.37
2019-03-20T04:45:14.722Z,4.40
2019-03-20T04:47:43.394Z,4.47
2019-03-20T04:50:16.084Z,4.87
2019-03-20T04:52:44.581Z,4.93
2019-03-20T04:55:13.392Z,4.87
2019-03-20T04:57:41.959Z,5.93
2019-03-20T05:00:15.621Z,5.40
2019-03-20T05:02:44.119Z,5.17
2019-03-20T05:05:12.593Z,4.73
2019-03-20T05:07:41.097Z,5.70
2019-03-20T05:10:15.307Z,5.97
2019-03-20T05:12:43.805Z,5.83
2019-03-20T05:15:14.514Z,5.93
2019-03-20T05:17:43.140Z,5.40
2019-03-20T05:20:18.720Z,6.27
2019-03-20T05:22:47.218Z,6.53
2019-03-20T05:25:15.927Z,6.47
2019-03-20T05:27:44.437Z,8.07
2019-03-20T05:30:14.363Z,8.20
2019-03-20T05:32:42.863Z,8.00
2019-03-20T05:35:11.786Z,7.17
2019-03-20T05:37:40.282Z,6.60
2019-03-20T05:40:14.363Z,6.90
2019-03-20T05:42:45.680Z,7.97
2019-03-20T05:45:15.504Z,6.43
2019-03-20T05:47:44.012Z,5.83
2019-03-20T05:50:17.136Z,6.50
2019-03-20T05:52:45.636Z,5.90
2019-03-20T05:55:14.250Z,7.33
2019-03-20T05:57:42.911Z,6.97
2019-03-20T06:00:22.076Z,7.37
2019-03-20T06:02:50.589Z,6.37
2019-03-20T06:05:19.064Z,7.13
2019-03-20T06:07:47.567Z,6.57
2019-03-20T06:10:17.081Z,6.50
2019-03-20T06:12:45.746Z,5.90
2019-03-20T06:15:14.759Z,5.10
2019-03-20T06:17:43.253Z,5.47
2019-03-20T06:20:13.182Z,5.13
2019-03-20T06:22:41.858Z,5.10
2019-03-20T06:25:14.362Z,5.27
2019-03-20T06:27:42.965Z,5.50
2019-03-20T06:30:16.404Z,5.20
2019-03-20T06:32:44.905Z,5.63
2019-03-20T06:35:13.823Z,5.77
2019-03-20T06:37:42.317Z,5.80
2019-03-20T06:40:17.918Z,5.97
2019-03-20T06:42:46.634Z,5.20
2019-03-20T06:45:21.951Z,5.00
2019-03-20T06:47:50.524Z,4.70
2019-03-20T06:50:20.431Z,5.03
2019-03-20T06:52:48.933Z,11.60
2019-03-20T06:55:17.470Z,5.00
2019-03-20T06:57:46.132Z,4.63
2019-03-20T07:00:46.437Z,5.20
2019-03-20T07:03:18.006Z,4.97
2019-03-20T07:05:58.544Z,5.27
2019-03-20T07:08:30.092Z,4.60
2019-03-20T07:11:07.620Z,4.67
2019-03-20T07:13:36.279Z,5.83
2019-03-20T07:16:05.281Z,5.20
2019-03-20T07:18:33.789Z,5.23
2019-03-20T07:21:02.258Z,5.40
2019-03-20T07:23:30.755Z,5.20
2019-03-20T07:25:59.220Z,5.57
2019-03-20T07:28:27.715Z,5.20
2019-03-20T07:30:56.192Z,5.00
2019-03-20T07:33:24.698Z,5.87
2019-03-20T07:35:53.175Z,5.03
2019-03-20T07:38:22.051Z,5.40
2019-03-20T07:40:50.514Z,5.50
2019-03-20T07:43:19.062Z,6.53
2019-03-20T07:45:47.542Z,5.83
2019-03-20T07:48:22.163Z,5.23
2019-03-20T07:50:46.231Z,5.00
2019-03-20T07:53:14.726Z,4.10
2019-03-20T07:55:43.271Z,4.70
2019-03-20T07:58:11.760Z,5.50
2019-03-20T08:00:40.301Z,4.90
2019-03-20T08:03:08.804Z,4.90
2019-03-20T08:05:37.270Z,5.93
2019-03-20T08:08:07.502Z,4.70
2019-03-20T08:10:36.015Z,4.03
2019-03-20T08:13:04.576Z,5.10
2019-03-20T08:15:33.040Z,4.73
2019-03-20T08:18:01.544Z,4.50
2019-03-20T08:20:30.941Z,4.87
2019-03-20T08:22:59.444Z,5.83
2019-03-20T08:25:27.913Z,5.17
2019-03-20T08:27:56.409Z,4.33
2019-03-20T08:30:24.887Z,4.33
2019-03-20T08:32:53.381Z,3.87
2019-03-20T08:35:21.849Z,3.73
2019-03-20T08:37:50.344Z,3.70
2019-03-20T08:40:19.653Z,3.23
2019-03-20T08:42:48.309Z,3.37
2019-03-20T08:45:18.963Z,2.20
2019-03-20T08:47:47.425Z,2.50
2019-03-20T08:50:25.933Z,3.60
2019-03-20T08:52:54.444Z,4.90
2019-03-20T08:55:23.084Z,3.33
2019-03-20T08:57:51.559Z,3.10
2019-03-20T09:00:22.539Z,2.27
2019-03-20T09:02:51.082Z,1.50
2019-03-20T09:05:19.644Z,2.33
2019-03-20T09:07:48.184Z,2.60
2019-03-20T09:10:26.961Z,2.37
2019-03-20T09:12:55.438Z,2.80
2019-03-20T09:15:24.065Z,2.73
2019-03-20T09:17:52.540Z,2.50
2019-03-20T09:20:23.045Z,2.73
2019-03-20T09:22:51.531Z,2.53
2019-03-20T09:25:22.171Z,2.53
2019-03-20T09:27:50.645Z,3.90
2019-03-20T09:30:27.153Z,2.47
2019-03-20T09:32:55.961Z,2.30
2019-03-20T09:35:24.455Z,2.73
2019-03-20T09:37:52.979Z,2.70
2019-03-20T09:40:23.884Z,2.60
2019-03-20T09:42:52.489Z,2.27
2019-03-20T09:45:21.821Z,2.10
2019-03-20T09:47:50.285Z,2.17
2019-03-20T09:50:22.858Z,1.97
2019-03-20T09:52:51.394Z,2.33
2019-03-20T09:55:20.061Z,2.10
2019-03-20T09:57:48.602Z,2.60
2019-03-20T10:00:25.057Z,2.37
2019-03-20T10:02:53.964Z,2.63
2019-03-20T10:05:22.698Z,2.77
2019-03-20T10:07:51.400Z,2.60
2019-03-20T10:10:22.942Z,2.73
2019-03-20T10:12:51.476Z,2.60
2019-03-20T10:15:27.064Z,2.73
2019-03-20T10:17:55.965Z,2.67
2019-03-20T10:20:24.803Z,2.70
2019-03-20T10:22:53.271Z,2.30
2019-03-20T10:25:21.831Z,3.53
2019-03-20T10:27:51.901Z,2.80
2019-03-20T10:30:22.666Z,2.57
2019-03-20T10:32:51.140Z,2.80
2019-03-20T10:35:19.775Z,2.70
2019-03-20T10:37:48.311Z,2.80
2019-03-20T10:40:22.195Z,3.20
2019-03-20T10:42:50.841Z,3.13
2019-03-20T10:45:20.071Z,3.53
2019-03-20T10:47:49.282Z,4.40
2019-03-20T10:50:30.511Z,2.70
2019-03-20T10:52:58.990Z,5.00
2019-03-20T10:55:27.486Z,3.67
2019-03-20T10:57:55.959Z,5.53
2019-03-20T11:00:28.158Z,3.40
2019-03-20T11:02:56.633Z,15.53
2019-03-20T11:05:25.417Z,5.33
2019-03-20T11:07:53.891Z,2.73
2019-03-20T11:10:26.207Z,4.00
2019-03-20T11:12:55.026Z,3.70
2019-03-20T11:15:24.463Z,3.77
2019-03-20T11:17:52.944Z,4.00
2019-03-20T11:20:22.974Z,3.20
2019-03-20T11:22:51.717Z,3.17
2019-03-20T11:25:22.593Z,3.30
2019-03-20T11:27:51.129Z,3.43
2019-03-20T11:30:27.428Z,3.30
2019-03-20T11:32:56.074Z,3.87
2019-03-20T11:35:24.646Z,3.40
2019-03-20T11:37:53.191Z,3.53
2019-03-20T11:40:41.684Z,3.20
2019-03-20T11:43:10.156Z,4.87
2019-03-20T11:45:38.659Z,4.63
2019-03-20T11:48:07.135Z,3.90
2019-03-20T11:50:43.357Z,4.43
2019-03-20T11:53:11.831Z,3.80
2019-03-20T11:55:40.392Z,4.30
2019-03-20T11:58:09.031Z,3.80
2019-03-20T12:00:37.672Z,4.90
2019-03-20T12:03:06.588Z,4.67
2019-03-20T12:05:35.105Z,4.40
2019-03-20T12:08:03.811Z,3.93
2019-03-20T12:10:33.345Z,4.53
2019-03-20T12:13:01.811Z,4.70
2019-03-20T12:15:30.312Z,4.73
2019-03-20T12:17:58.784Z,4.67
2019-03-20T12:20:27.456Z,5.40
2019-03-20T12:22:56.267Z,4.30
2019-03-20T12:25:29.383Z,4.40
2019-03-20T12:27:57.857Z,5.10
2019-03-20T12:30:34.364Z,4.25
2019-03-20T12:33:03.198Z,5.33
2019-03-20T12:35:37.338Z,5.20
2019-03-20T12:38:14.221Z,5.10
2019-03-20T12:40:36.744Z,3.80
2019-03-20T12:43:06.151Z,3.90
2019-03-20T12:45:35.886Z,3.85
2019-03-20T12:48:08.375Z,4.33
2019-03-20T12:50:37.008Z,4.75
2019-03-20T12:53:07.322Z,4.90
2019-03-20T12:55:35.812Z,5.15
2019-03-20T12:58:04.667Z,4.65
2019-03-20T13:00:33.308Z,4.75
2019-03-20T13:03:01.779Z,4.35
2019-03-20T13:05:30.284Z,4.08
2019-03-20T13:08:05.692Z,3.60
2019-03-20T13:10:29.930Z,4.00
2019-03-20T13:12:58.571Z,5.03
2019-03-20T13:15:28.318Z,4.75
2019-03-20T13:17:57.521Z,4.33
2019-03-20T13:20:26.456Z,3.40
2019-03-20T13:23:00.394Z,3.60
2019-03-20T13:25:28.865Z,3.60
2019-03-20T13:27:57.344Z,3.50
2019-03-20T13:30:37.431Z,4.50
2019-03-20T13:33:06.048Z,3.60
2019-03-20T13:35:34.611Z,3.67
2019-03-20T13:38:03.153Z,3.72
2019-03-20T13:40:31.651Z,3.60
2019-03-20T13:43:00.127Z,3.40
2019-03-20T13:45:29.354Z,3.90
2019-03-20T13:47:57.825Z,3.33
2019-03-20T13:50:26.317Z,3.60
2019-03-20T13:52:54.864Z,3.62
2019-03-20T13:55:23.356Z,3.60
2019-03-20T13:57:51.828Z,4.60
2019-03-20T14:00:24.389Z,4.08
2019-03-20T14:02:52.864Z,3.50
2019-03-20T14:05:21.434Z,3.47
2019-03-20T14:07:49.911Z,4.12
2019-03-20T14:10:24.996Z,3.27
2019-03-20T14:12:50.617Z,3.92
2019-03-20T14:15:22.359Z,3.40
2019-03-20T14:17:51.000Z,3.55
2019-03-20T14:20:27.124Z,3.25
2019-03-20T14:22:55.667Z,3.35
2019-03-20T14:25:24.414Z,3.20
2019-03-20T14:27:55.636Z,3.00
2019-03-20T14:30:31.873Z,3.60
2019-03-20T14:33:00.410Z,3.30
2019-03-20T14:35:28.945Z,3.17
2019-03-20T14:37:57.620Z,3.70
2019-03-20T14:40:37.422Z,4.70
2019-03-20T14:43:00.757Z,3.55
2019-03-20T14:45:29.362Z,3.17
2019-03-20T14:47:57.863Z,3.02
2019-03-20T14:50:31.594Z,3.10
2019-03-20T14:53:00.085Z,3.10
2019-03-20T14:55:28.890Z,3.30
2019-03-20T14:57:57.518Z,2.95
2019-03-20T15:00:27.046Z,3.30
2019-03-20T15:02:55.704Z,2.80
2019-03-20T15:05:24.716Z,2.37
2019-03-20T15:07:53.374Z,3.17
2019-03-20T15:10:23.388Z,3.10
2019-03-20T15:12:52.948Z,3.17
2019-03-20T15:15:56.208Z,2.90
2019-03-20T15:18:24.681Z,3.02
2019-03-20T15:20:53.153Z,3.80
2019-03-20T15:23:21.687Z,3.20
2019-03-20T15:25:50.239Z,3.20
2019-03-20T15:28:18.739Z,3.80
2019-03-20T15:30:47.235Z,3.33
2019-03-20T15:33:15.728Z,2.93
2019-03-20T15:35:44.199Z,3.10
2019-03-20T15:38:12.689Z,2.90
2019-03-20T15:40:41.163Z,3.20
2019-03-20T15:43:09.659Z,3.13
2019-03-20T15:45:38.130Z,2.97
2019-03-20T15:48:06.670Z,2.95
2019-03-20T15:50:35.163Z,3.22
2019-03-20T15:53:03.760Z,3.47
2019-03-20T15:55:34.149Z,3.30
2019-03-20T15:58:02.722Z,3.12
2019-03-20T16:00:31.264Z,3.90
2019-03-20T16:03:09.010Z,3.52
2019-03-20T16:05:37.481Z,3.98
2019-03-20T16:08:06.152Z,3.30
2019-03-20T16:10:34.632Z,3.30
2019-03-20T16:13:03.153Z,3.77
2019-03-20T16:15:31.927Z,2.95
2019-03-20T16:18:00.428Z,3.55
2019-03-20T16:20:28.943Z,3.83
2019-03-20T16:22:57.557Z,2.92
2019-03-20T16:25:26.112Z,3.30
2019-03-20T16:27:54.643Z,5.08
2019-03-20T16:30:28.370Z,4.10
2019-03-20T16:32:57.078Z,4.87
2019-03-20T16:35:25.641Z,3.95
2019-03-20T16:37:54.188Z,4.05
2019-03-20T16:40:25.189Z,4.20
2019-03-20T16:42:53.786Z,4.73
2019-03-20T16:45:30.450Z,3.93
2019-03-20T16:47:59.117Z,3.33
2019-03-20T16:50:27.732Z,3.07
2019-03-20T16:52:56.523Z,2.97
2019-03-20T16:55:25.389Z,3.00
2019-03-20T16:57:54.078Z,3.27
2019-03-20T17:00:33.222Z,2.87
2019-03-20T17:03:02.101Z,3.83
2019-03-20T17:05:31.424Z,3.70
2019-03-20T17:07:59.911Z,3.13
2019-03-20T17:10:36.837Z,3.40
2019-03-20T17:13:06.659Z,3.77
2019-03-20T17:15:43.790Z,3.57
2019-03-20T17:18:12.281Z,4.20
2019-03-20T17:20:40.812Z,3.50
2019-03-20T17:23:09.385Z,3.77
2019-03-20T17:25:37.923Z,3.83
2019-03-20T17:28:07.455Z,4.20
2019-03-20T17:30:40.663Z,4.83
2019-03-20T17:33:09.153Z,4.50
2019-03-20T17:35:37.627Z,4.87
2019-03-20T17:38:06.274Z,5.13
2019-03-20T17:40:34.732Z,5.20
2019-03-20T17:43:03.470Z,5.17
2019-03-20T17:45:32.783Z,4.87
2019-03-20T17:48:01.346Z,4.67
2019-03-20T17:50:33.634Z,5.30
2019-03-20T17:53:02.404Z,5.30
2019-03-20T17:55:31.414Z,5.20
2019-03-20T17:57:59.978Z,4.77
2019-03-20T18:00:33.955Z,4.83
2019-03-20T18:03:02.444Z,5.40
2019-03-20T18:05:30.913Z,5.67
2019-03-20T18:07:59.415Z,6.20
2019-03-20T18:10:27.952Z,6.77
2019-03-20T18:12:56.451Z,7.00
2019-03-20T18:15:24.986Z,5.63
2019-03-20T18:17:53.499Z,5.70
2019-03-20T18:20:22.022Z,5.40
2019-03-20T18:22:50.515Z,5.23
2019-03-20T18:25:19.014Z,5.90
2019-03-20T18:27:47.579Z,5.63
2019-03-20T18:30:26.833Z,5.70
2019-03-20T18:32:55.322Z,6.53
2019-03-20T18:35:23.837Z,6.97
2019-03-20T18:37:53.702Z,6.20
2019-03-20T18:40:26.754Z,6.23
2019-03-20T18:42:55.352Z,6.20
2019-03-20T18:45:24.871Z,7.23
2019-03-20T18:47:53.677Z,5.63
2019-03-20T18:50:24.190Z,7.47
2019-03-20T18:52:52.903Z,6.53
2019-03-20T18:55:21.686Z,5.53
2019-03-20T18:57:50.574Z,6.07
2019-03-20T19:00:30.991Z,5.70
2019-03-20T19:03:17.659Z,6.13
2019-03-20T19:05:54.990Z,6.27
2019-03-20T19:08:23.655Z,5.73
2019-03-20T19:10:52.371Z,5.93
2019-03-20T19:13:20.911Z,5.40
2019-03-20T19:15:50.028Z,5.70
2019-03-20T19:18:20.225Z,5.80
2019-03-20T19:20:49.580Z,6.60
2019-03-20T19:23:18.581Z,7.20
2019-03-20T19:25:47.117Z,5.87
2019-03-20T19:28:15.688Z,6.10
2019-03-20T19:30:44.147Z,5.60
2019-03-20T19:33:12.984Z,6.03
2019-03-20T19:35:42.986Z,5.73
2019-03-20T19:38:11.620Z,5.87
2019-03-20T19:40:41.610Z,6.10
2019-03-20T19:43:10.718Z,6.10
2019-03-20T19:45:39.889Z,5.77
2019-03-20T19:48:09.000Z,5.97
2019-03-20T19:50:37.465Z,6.73
2019-03-20T19:53:05.959Z,6.87
2019-03-20T19:55:34.456Z,5.97
2019-03-20T19:58:02.916Z,5.73
2019-03-20T20:00:31.549Z,5.67
2019-03-20T20:03:00.030Z,6.00
2019-03-20T20:05:29.208Z,5.63
2019-03-20T20:07:57.682Z,6.00
2019-03-20T20:10:26.325Z,5.10
2019-03-20T20:12:55.120Z,5.90
2019-03-20T20:15:28.771Z,4.97
2019-03-20T20:17:57.241Z,5.77
2019-03-20T20:20:39.644Z,6.00
2019-03-20T20:23:08.119Z,5.63
2019-03-20T20:25:36.695Z,6.63
2019-03-20T20:28:06.571Z,6.43
2019-03-20T20:30:35.374Z,6.73
2019-03-20T20:33:04.551Z,6.03
2019-03-20T20:35:33.124Z,5.77
2019-03-20T20:38:01.591Z,5.90
2019-03-20T20:40:31.037Z,6.53
2019-03-20T20:42:59.491Z,6.37
2019-03-20T20:45:28.000Z,6.37
2019-03-20T20:47:56.469Z,6.67
2019-03-20T20:50:25.036Z,6.83
2019-03-20T20:52:53.503Z,6.47
2019-03-20T20:55:23.047Z,5.83
2019-03-20T20:57:51.516Z,6.43
2019-03-20T21:00:22.232Z,6.00
2019-03-20T21:02:51.103Z,6.07
2019-03-20T21:05:19.592Z,5.83
2019-03-20T21:07:48.213Z,6.77
2019-03-20T21:10:43.472Z,5.63
2019-03-20T21:13:11.931Z,5.80
2019-03-20T21:15:42.469Z,5.67
2019-03-20T21:18:13.988Z,5.93
2019-03-20T21:20:42.560Z,5.50
2019-03-20T21:23:33.610Z,4.90
2019-03-20T21:26:02.885Z,5.00
2019-03-20T21:28:51.102Z,5.27
2019-03-20T21:31:20.576Z,5.07
2019-03-20T21:34:11.175Z,4.97
2019-03-20T21:37:00.771Z,5.27
2019-03-20T21:39:29.254Z,5.00
2019-03-20T21:42:23.664Z,5.03
2019-03-20T21:45:27.089Z,5.73
2019-03-20T21:47:55.561Z,5.07
2019-03-20T21:50:51.444Z,5.07
2019-03-20T21:53:41.425Z,5.40
2019-03-20T21:56:31.025Z,5.17
2019-03-20T21:59:11.722Z,4.80
2019-03-20T22:02:01.571Z,5.67
2019-03-20T22:04:30.052Z,5.80
2019-03-20T22:07:09.423Z,5.73
2019-03-20T22:09:56.018Z,5.60
2019-03-20T22:12:45.732Z,5.30
2019-03-20T22:15:26.443Z,5.00
2019-03-20T22:18:15.765Z,6.37
2019-03-20T22:20:55.977Z,5.93
2019-03-20T22:23:42.074Z,6.10
2019-03-20T22:26:28.620Z,6.33
2019-03-20T22:29:23.025Z,5.87
2019-03-20T22:32:20.458Z,6.40
2019-03-20T22:35:09.915Z,6.57
2019-03-20T22:37:38.414Z,7.10
2019-03-20T22:40:18.923Z,6.97
2019-03-20T22:43:05.392Z,6.80
2019-03-20T22:46:05.944Z,7.00
2019-03-20T22:48:39.997Z,7.37
2019-03-20T22:51:34.256Z,6.47
2019-03-20T22:54:42.423Z,7.30
2019-03-20T22:57:22.815Z,7.50
2019-03-20T22:59:51.292Z,7.40
2019-03-20T23:02:34.870Z,7.83
2019-03-20T23:05:03.512Z,7.53
2019-03-20T23:07:32.017Z,7.60
2019-03-20T23:10:00.491Z,7.47
2019-03-20T23:12:28.982Z,7.23
2019-03-20T23:14:57.441Z,6.97
2019-03-20T23:17:25.943Z,7.10
2019-03-20T23:19:54.418Z,7.10
2019-03-20T23:22:22.900Z,7.13
2019-03-20T23:24:51.371Z,7.87
2019-03-20T23:27:25.352Z,7.30
2019-03-20T23:29:53.821Z,7.13
2019-03-20T23:32:22.318Z,7.43
2019-03-20T23:34:50.793Z,7.37
2019-03-20T23:37:19.284Z,6.77
2019-03-20T23:39:47.767Z,7.03
2019-03-20T23:42:16.336Z,7.10
2019-03-20T23:44:44.807Z,6.67
2019-03-20T23:47:13.310Z,6.93
2019-03-20T23:49:41.777Z,6.93
2019-03-20T23:52:10.273Z,8.07
2019-03-20T23:54:45.959Z,7.60
2019-03-20T23:57:15.195Z,8.60
2019-03-20T23:59:43.667Z,7.90
